地図

経路データ

SID SEASON NUMBER BASIN SUBBASIN NAME ISO_TIME NATURE LAT LON WMO_WIND WMO_PRES WMO_AGENCY TRACK_TYPE DIST2LAND LANDFALL IFLAG USA_AGENCY USA_ATCF_ID USA_LAT USA_LON USA_RECORD USA_STATUS USA_WIND USA_PRES USA_SSHS USA_R34_NE USA_R34_SE USA_R34_SW USA_R34_NW USA_R50_NE USA_R50_SE USA_R50_SW USA_R50_NW USA_R64_NE USA_R64_SE USA_R64_SW USA_R64_NW USA_POCI USA_ROCI USA_RMW USA_EYE TOKYO_LAT TOKYO_LON TOKYO_GRADE TOKYO_WIND TOKYO_PRES TOKYO_R50_DIR TOKYO_R50_LONG TOKYO_R50_SHORT TOKYO_R30_DIR TOKYO_R30_LONG TOKYO_R30_SHORT TOKYO_LAND CMA_LAT CMA_LON CMA_CAT CMA_WIND CMA_PRES HKO_LAT HKO_LON HKO_CAT HKO_WIND HKO_PRES NEWDELHI_LAT NEWDELHI_LON NEWDELHI_GRADE NEWDELHI_WIND NEWDELHI_PRES NEWDELHI_CI NEWDELHI_DP NEWDELHI_POCI REUNION_LAT REUNION_LON REUNION_TYPE REUNION_WIND REUNION_PRES REUNION_TNUM REUNION_CI REUNION_RMW REUNION_R34_NE REUNION_R34_SE REUNION_R34_SW REUNION_R34_NW REUNION_R50_NE REUNION_R50_SE REUNION_R50_SW REUNION_R50_NW REUNION_R64_NE REUNION_R64_SE REUNION_R64_SW REUNION_R64_NW BOM_LAT BOM_LON BOM_TYPE BOM_WIND BOM_PRES BOM_TNUM BOM_CI BOM_RMW BOM_R34_NE BOM_R34_SE BOM_R34_SW BOM_R34_NW BOM_R50_NE BOM_R50_SE BOM_R50_SW BOM_R50_NW BOM_R64_NE BOM_R64_SE BOM_R64_SW BOM_R64_NW BOM_ROCI BOM_POCI BOM_EYE BOM_POS_METHOD BOM_PRES_METHOD NADI_LAT NADI_LON NADI_CAT NADI_WIND NADI_PRES WELLINGTON_LAT WELLINGTON_LON WELLINGTON_WIND WELLINGTON_PRES DS824_LAT DS824_LON DS824_STAGE DS824_WIND DS824_PRES TD9636_LAT TD9636_LON TD9636_STAGE TD9636_WIND TD9636_PRES TD9635_LAT TD9635_LON TD9635_WIND TD9635_PRES TD9635_ROCI NEUMANN_LAT NEUMANN_LON NEUMANN_CLASS NEUMANN_WIND NEUMANN_PRES MLC_LAT MLC_LON MLC_CLASS MLC_WIND MLC_PRES USA_GUST BOM_GUST BOM_GUST_PER REUNION_GUST REUNION_GUST_PER USA_SEAHGT USA_SEARAD_NE USA_SEARAD_SE USA_SEARAD_SW USA_SEARAD_NW STORM_SPEED STORM_DIR
2000228N31180 2000 64 WP MM WENE 2000-08-14 12:00:00 TS 31.3000 179.600 main 2288 2288 O_____________ jtwc_wp WP162000 31.3000 179.600 TD 15 -1 8 344
2000228N31180 2000 64 WP MM WENE 2000-08-14 15:00:00 TS 31.6676 179.475 main 2314 2314 P_____________ WP162000 31.6676 179.475 TD 17 -1 7 346
2000228N31180 2000 64 WP MM WENE 2000-08-14 18:00:00 TS 32.0000 179.400 main 2335 2335 O_____________ jtwc_wp WP162000 32.0000 179.400 TD 20 -1 6 354
2000228N31180 2000 64 WP MM WENE 2000-08-14 21:00:00 TS 32.2725 179.412 main 2349 2345 P_____________ WP162000 32.2725 179.412 TD 20 -1 5 10
2000228N31180 2000 64 WP MM WENE 2000-08-15 00:00:00 TS 32.5000 179.500 main 2350 2346 O_____________ jtwc_wp WP162000 32.5000 179.500 TD 20 -1 5 23
2000228N31180 2000 64 WP MM WENE 2000-08-15 03:00:00 TS 32.7000 179.628 main 2350 2342 P_____________ WP162000 32.7000 179.628 TD 22 -1 5 28
2000228N31180 2000 64 WP MM WENE 2000-08-15 06:00:00 TS 32.9400 179.780 main 2343 2343 O_____________ jtwc_wp WP162000 32.9000 179.800 TD 25 -1 6 30
2000228N31180 2000 64 WP MM WENE 2000-08-15 09:00:00 TS 33.1866 179.961 main 2342 2334 P_____________ WP162000 33.1649 179.970 TD 25 -1 6 38
2000228N31180 2000 64 EP CP WENE 2000-08-15 12:00:00 TS 33.3875 180.200 30 cphc main 2334 2314 O_____________ jtwc_wp WP162000 33.4000 -179.800 TD 25 -1 6 52
2000228N31180 2000 64 EP CP WENE 2000-08-15 15:00:00 TS 33.5461 180.520 main 2314 2285 P_____________ WP162000 33.4776 -179.464 TD 35 0 7 58
2000228N31180 2000 64 EP CP WENE 2000-08-15 18:00:00 TS 33.7364 180.864 35 cphc main 2282 2242 O_____________ jtwc_wp WP162000 33.6000 -179.100 TS 45 0 7 51
2000228N31180 2000 64 EP CP WENE 2000-08-15 21:00:00 TS 33.9882 181.181 main 2242 2202 P_____________ WP162000 33.9474 -178.793 TS 45 0 8 41
2000228N31180 2000 64 EP CP WENE 2000-08-16 00:00:00 TS 34.3429 181.500 45 hurdat_epa main 2202 2140 O_____________ hurdat_epa CP022000 34.4000 -178.500 TS 45 0 10 35
2000228N31180 2000 64 EP CP WENE 2000-08-16 03:00:00 TS 34.7927 181.855 main 2138 2076 P_____________ CP022000 34.8275 -178.192 TS 45 0 11 30
2000228N31180 2000 64 EP CP WENE 2000-08-16 06:00:00 TS 35.3000 182.167 45 hurdat_epa main 2076 2018 O_____________ hurdat_epa CP022000 35.3000 -177.900 TS 45 0 11 23
2000228N31180 2000 64 EP CP WENE 2000-08-16 09:00:00 TS 35.8303 182.381 main 2018 1949 P_____________ CP022000 35.8274 -177.642 TS 42 0 12 17
2000228N31180 2000 64 EP CP WENE 2000-08-16 12:00:00 TS 36.4000 182.580 40 hurdat_epa main 1949 1890 O_____________ hurdat_epa CP022000 36.4000 -177.400 TS 40 0 12 18
2000228N31180 2000 64 EP CP WENE 2000-08-16 15:00:00 TS 36.9760 182.834 main 1879 1808 P_____________ CP022000 36.9775 -177.150 TS 40 0 13 19
2000228N31180 2000 64 EP CP WENE 2000-08-16 18:00:00 TS 37.6000 183.100 40 hurdat_epa main 1808 1728 O_____________ hurdat_epa CP022000 37.6000 -176.900 TS 40 0 14 17
2000228N31180 2000 64 EP CP WENE 2000-08-16 21:00:00 TS 38.3115 183.359 main 1726 1646 P_____________ CP022000 38.3000 -176.643 TS 40 0 15 15
2000228N31180 2000 64 EP CP WENE 2000-08-17 00:00:00 TS 39.0200 183.600 40 hurdat_epa main 1646 1577 O_____________ hurdat_epa CP022000 39.0000 -176.400 TS 40 0 14 15
2000228N31180 2000 64 EP CP WENE 2000-08-17 03:00:00 TS 39.6395 183.809 main 1577 1508 P_____________ CP022000 39.6250 -176.190 TS 37 0 12 15
2000228N31180 2000 64 EP CP WENE 2000-08-17 06:00:00 TS 40.2000 184.000 35 hurdat_epa main 1508 O_____________ hurdat_epa CP022000 40.2000 -176.000 TS 35 0 12 15

デジタル台風データ・検索

IBTrACS Databaseについて

本データベースは、米国NOAAが公開する1842年以降の世界の熱帯低気圧のベストトラックデータアーカイブInternational Best Track Archive for Climate Stewardship (IBTrACS)を、ウェブで閲覧しやすい形式に変換したものです。

最終更新日:2021-10-08